sensor_id;sensor_type;location;lat;lon;timestamp;temperature;humidity
48604;DHT22;32708;51.212;6.788;2024-02-26T00:00:01;8.70;1.00
48604;DHT22;32708;51.212;6.788;2024-02-26T00:02:30;8.60;99.90
48604;DHT22;32708;51.212;6.788;2024-02-26T00:04:59;8.80;99.90
48604;DHT22;32708;51.212;6.788;2024-02-26T00:07:25;8.90;1.00
48604;DHT22;32708;51.212;6.788;2024-02-26T00:09:51;9.20;1.00
48604;DHT22;32708;51.212;6.788;2024-02-26T00:12:18;8.90;1.00
48604;DHT22;32708;51.212;6.788;2024-02-26T00:14:44;8.70;1.00
48604;DHT22;32708;51.212;6.788;2024-02-26T00:17:13;8.90;99.90
48604;DHT22;32708;51.212;6.788;2024-02-26T00:19:39;9.00;99.90
48604;DHT22;32708;51.212;6.788;2024-02-26T00:22:05;9.70;95.50
48604;DHT22;32708;51.212;6.788;2024-02-26T00:24:32;8.90;37.20
48604;DHT22;32708;51.212;6.788;2024-02-26T00:26:59;8.90;60.40
48604;DHT22;32708;51.212;6.788;2024-02-26T00:29:25;8.90;1.00
48604;DHT22;32708;51.212;6.788;2024-02-26T00:31:52;8.90;99.90
48604;DHT22;32708;51.212;6.788;2024-02-26T00:34:18;9.10;99.90
48604;DHT22;32708;51.212;6.788;2024-02-26T00:36:44;9.10;99.90
48604;DHT22;32708;51.212;6.788;2024-02-26T00:39:12;9.00;99.90
48604;DHT22;32708;51.212;6.788;2024-02-26T00:41:41;9.00;99.90
48604;DHT22;32708;51.212;6.788;2024-02-26T00:44:07;9.10;99.90
48604;DHT22;32708;51.212;6.788;2024-02-26T00:46:33;9.00;99.90
48604;DHT22;32708;51.212;6.788;2024-02-26T00:49:00;9.00;99.90
48604;DHT22;32708;51.212;6.788;2024-02-26T00:51:27;9.20;99.90
48604;DHT22;32708;51.212;6.788;2024-02-26T00:53:54;9.20;99.90
48604;DHT22;32708;51.212;6.788;2024-02-26T00:56:21;9.20;85.90
48604;DHT22;32708;51.212;6.788;2024-02-26T00:58:48;9.20;99.90
48604;DHT22;32708;51.212;6.788;2024-02-26T01:01:14;9.10;71.70
48604;DHT22;32708;51.212;6.788;2024-02-26T01:03:40;9.00;99.90
48604;DHT22;32708;51.212;6.788;2024-02-26T01:06:06;9.20;99.90
48604;DHT22;32708;51.212;6.788;2024-02-26T01:08:32;9.00;99.90
48604;DHT22;32708;51.212;6.788;2024-02-26T01:10:59;9.00;99.90
48604;DHT22;32708;51.212;6.788;2024-02-26T01:13:25;8.70;1.00
48604;DHT22;32708;51.212;6.788;2024-02-26T01:15:51;8.70;83.50
48604;DHT22;32708;51.212;6.788;2024-02-26T01:18:17;8.70;99.90
48604;DHT22;32708;51.212;6.788;2024-02-26T01:20:43;8.70;1.00
48604;DHT22;32708;51.212;6.788;2024-02-26T01:23:10;8.80;1.00
48604;DHT22;32708;51.212;6.788;2024-02-26T01:25:36;8.80;1.00
48604;DHT22;32708;51.212;6.788;2024-02-26T01:28:02;8.80;99.90
48604;DHT22;32708;51.212;6.788;2024-02-26T01:30:29;8.70;99.90
48604;DHT22;32708;51.212;6.788;2024-02-26T01:32:55;8.60;99.90
48604;DHT22;32708;51.212;6.788;2024-02-26T01:35:21;8.60;54.90
48604;DHT22;32708;51.212;6.788;2024-02-26T01:37:47;8.70;1.00
48604;DHT22;32708;51.212;6.788;2024-02-26T01:40:14;8.70;99.90
48604;DHT22;32708;51.212;6.788;2024-02-26T01:42:45;8.60;56.80
48604;DHT22;32708;51.212;6.788;2024-02-26T01:45:15;8.60;99.90
48604;DHT22;32708;51.212;6.788;2024-02-26T01:47:52;8.70;1.00
48604;DHT22;32708;51.212;6.788;2024-02-26T01:50:21;8.50;99.90
48604;DHT22;32708;51.212;6.788;2024-02-26T01:52:50;8.50;99.90
48604;DHT22;32708;51.212;6.788;2024-02-26T01:55:20;8.40;99.90
48604;DHT22;32708;51.212;6.788;2024-02-26T01:57:50;8.30;1.00
48604;DHT22;32708;51.212;6.788;2024-02-26T02:00:21;8.20;1.00
48604;DHT22;32708;51.212;6.788;2024-02-26T02:02:48;8.30;1.00
48604;DHT22;32708;51.212;6.788;2024-02-26T02:05:16;8.00;1.00
48604;DHT22;32708;51.212;6.788;2024-02-26T02:07:43;8.00;1.80
48604;DHT22;32708;51.212;6.788;2024-02-26T02:10:10;7.90;33.90
48604;DHT22;32708;51.212;6.788;2024-02-26T02:12:37;8.30;51.30
48604;DHT22;32708;51.212;6.788;2024-02-26T02:15:06;7.80;69.80
48604;DHT22;32708;51.212;6.788;2024-02-26T02:17:33;7.70;91.40
48604;DHT22;32708;51.212;6.788;2024-02-26T02:19:59;7.70;93.20
48604;DHT22;32708;51.212;6.788;2024-02-26T02:22:26;8.00;96.40
48604;DHT22;32708;51.212;6.788;2024-02-26T02:24:53;8.00;99.50
48604;DHT22;32708;51.212;6.788;2024-02-26T02:27:20;7.50;99.90
48604;DHT22;32708;51.212;6.788;2024-02-26T02:29:48;7.60;99.90
48604;DHT22;32708;51.212;6.788;2024-02-26T02:32:16;7.70;99.90
48604;DHT22;32708;51.212;6.788;2024-02-26T02:34:43;7.90;99.90
48604;DHT22;32708;51.212;6.788;2024-02-26T02:37:10;7.40;99.90
48604;DHT22;32708;51.212;6.788;2024-02-26T02:39:36;7.40;99.90
48604;DHT22;32708;51.212;6.788;2024-02-26T02:42:03;7.40;99.90
48604;DHT22;32708;51.212;6.788;2024-02-26T02:44:29;7.40;99.90
48604;DHT22;32708;51.212;6.788;2024-02-26T02:46:55;7.30;99.90
48604;DHT22;32708;51.212;6.788;2024-02-26T02:49:21;7.40;99.90
48604;DHT22;32708;51.212;6.788;2024-02-26T02:51:49;7.30;99.90
48604;DHT22;32708;51.212;6.788;2024-02-26T02:54:15;7.30;99.90
48604;DHT22;32708;51.212;6.788;2024-02-26T02:56:41;7.20;99.90
48604;DHT22;32708;51.212;6.788;2024-02-26T02:59:07;7.90;99.90
48604;DHT22;32708;51.212;6.788;2024-02-26T03:01:34;7.30;99.90
48604;DHT22;32708;51.212;6.788;2024-02-26T03:04:00;7.40;99.90
48604;DHT22;32708;51.212;6.788;2024-02-26T03:06:26;7.20;99.90
48604;DHT22;32708;51.212;6.788;2024-02-26T03:08:54;7.30;99.90
48604;DHT22;32708;51.212;6.788;2024-02-26T03:11:20;7.20;99.90
48604;DHT22;32708;51.212;6.788;2024-02-26T03:13:47;7.20;99.90
48604;DHT22;32708;51.212;6.788;2024-02-26T03:16:13;7.30;99.90
48604;DHT22;32708;51.212;6.788;2024-02-26T03:18:40;7.20;99.90
48604;DHT22;32708;51.212;6.788;2024-02-26T03:21:07;7.20;99.90
48604;DHT22;32708;51.212;6.788;2024-02-26T03:23:33;7.20;99.90
48604;DHT22;32708;51.212;6.788;2024-02-26T03:26:03;7.30;99.90
48604;DHT22;32708;51.212;6.788;2024-02-26T03:28:30;7.20;99.90
48604;DHT22;32708;51.212;6.788;2024-02-26T03:31:00;7.30;99.90
48604;DHT22;32708;51.212;6.788;2024-02-26T03:33:28;7.10;99.90
48604;DHT22;32708;51.212;6.788;2024-02-26T03:35:54;7.10;99.90
48604;DHT22;32708;51.212;6.788;2024-02-26T03:38:20;7.10;99.90
48604;DHT22;32708;51.212;6.788;2024-02-26T03:40:46;7.20;99.90
48604;DHT22;32708;51.212;6.788;2024-02-26T03:43:12;7.10;99.90
48604;DHT22;32708;51.212;6.788;2024-02-26T03:45:38;7.10;99.90
48604;DHT22;32708;51.212;6.788;2024-02-26T03:48:04;7.20;99.90
48604;DHT22;32708;51.212;6.788;2024-02-26T03:50:31;7.10;99.90
48604;DHT22;32708;51.212;6.788;2024-02-26T03:52:58;7.10;99.90
48604;DHT22;32708;51.212;6.788;2024-02-26T03:55:25;7.10;99.90
48604;DHT22;32708;51.212;6.788;2024-02-26T03:57:51;7.60;99.90
48604;DHT22;32708;51.212;6.788;2024-02-26T04:00:18;7.10;99.90
48604;DHT22;32708;51.212;6.788;2024-02-26T04:02:46;7.10;99.90
48604;DHT22;32708;51.212;6.788;2024-02-26T04:05:14;7.10;99.90
48604;DHT22;32708;51.212;6.788;2024-02-26T04:07:41;7.10;99.90
48604;DHT22;32708;51.212;6.788;2024-02-26T04:10:10;7.10;99.90
48604;DHT22;32708;51.212;6.788;2024-02-26T04:12:41;7.10;99.90
48604;DHT22;32708;51.212;6.788;2024-02-26T04:15:09;7.40;99.90
48604;DHT22;32708;51.212;6.788;2024-02-26T04:17:36;7.30;99.90
48604;DHT22;32708;51.212;6.788;2024-02-26T04:20:04;7.00;99.90
48604;DHT22;32708;51.212;6.788;2024-02-26T04:22:33;7.10;99.90
48604;DHT22;32708;51.212;6.788;2024-02-26T04:25:00;7.00;99.90
48604;DHT22;32708;51.212;6.788;2024-02-26T04:27:26;7.10;99.90
48604;DHT22;32708;51.212;6.788;2024-02-26T04:29:54;7.10;99.90
48604;DHT22;32708;51.212;6.788;2024-02-26T04:32:20;7.00;99.90
48604;DHT22;32708;51.212;6.788;2024-02-26T04:34:47;6.80;99.90
48604;DHT22;32708;51.212;6.788;2024-02-26T04:37:13;7.30;99.90
48604;DHT22;32708;51.212;6.788;2024-02-26T04:39:39;6.80;99.90
48604;DHT22;32708;51.212;6.788;2024-02-26T04:42:05;7.00;99.90
48604;DHT22;32708;51.212;6.788;2024-02-26T04:44:31;6.90;99.90
48604;DHT22;32708;51.212;6.788;2024-02-26T04:46:57;6.90;99.90
48604;DHT22;32708;51.212;6.788;2024-02-26T04:49:23;6.80;99.90
48604;DHT22;32708;51.212;6.788;2024-02-26T04:51:49;6.70;99.90
48604;DHT22;32708;51.212;6.788;2024-02-26T04:54:16;6.70;99.90
48604;DHT22;32708;51.212;6.788;2024-02-26T04:56:43;6.70;99.90
48604;DHT22;32708;51.212;6.788;2024-02-26T04:59:10;7.50;99.90
48604;DHT22;32708;51.212;6.788;2024-02-26T05:01:36;6.60;99.90
48604;DHT22;32708;51.212;6.788;2024-02-26T05:04:02;6.50;99.90
48604;DHT22;32708;51.212;6.788;2024-02-26T05:06:29;6.50;99.90
48604;DHT22;32708;51.212;6.788;2024-02-26T05:08:55;6.40;99.90
48604;DHT22;32708;51.212;6.788;2024-02-26T05:11:21;6.50;99.90
48604;DHT22;32708;51.212;6.788;2024-02-26T05:13:48;6.60;99.90
48604;DHT22;32708;51.212;6.788;2024-02-26T05:16:14;6.70;99.90
48604;DHT22;32708;51.212;6.788;2024-02-26T05:18:40;6.90;99.90
48604;DHT22;32708;51.212;6.788;2024-02-26T05:21:06;6.50;99.90
48604;DHT22;32708;51.212;6.788;2024-02-26T05:23:32;6.50;99.90
48604;DHT22;32708;51.212;6.788;2024-02-26T05:25:58;6.50;99.90
48604;DHT22;32708;51.212;6.788;2024-02-26T05:28:24;6.50;99.90
48604;DHT22;32708;51.212;6.788;2024-02-26T05:30:50;6.40;99.90
48604;DHT22;32708;51.212;6.788;2024-02-26T05:33:17;6.40;99.90
48604;DHT22;32708;51.212;6.788;2024-02-26T05:35:43;6.50;99.90
48604;DHT22;32708;51.212;6.788;2024-02-26T05:38:09;6.50;99.90
48604;DHT22;32708;51.212;6.788;2024-02-26T05:40:35;6.50;99.90
48604;DHT22;32708;51.212;6.788;2024-02-26T05:43:01;6.60;99.90
48604;DHT22;32708;51.212;6.788;2024-02-26T05:45:27;7.40;99.90
48604;DHT22;32708;51.212;6.788;2024-02-26T05:47:54;6.50;99.90
48604;DHT22;32708;51.212;6.788;2024-02-26T05:50:20;6.40;99.90
48604;DHT22;32708;51.212;6.788;2024-02-26T05:52:46;6.40;99.90
48604;DHT22;32708;51.212;6.788;2024-02-26T05:55:12;6.30;99.90
48604;DHT22;32708;51.212;6.788;2024-02-26T05:57:39;6.30;99.90
48604;DHT22;32708;51.212;6.788;2024-02-26T06:00:06;6.30;99.90
48604;DHT22;32708;51.212;6.788;2024-02-26T06:02:38;6.40;99.90
48604;DHT22;32708;51.212;6.788;2024-02-26T06:05:05;6.30;99.90
48604;DHT22;32708;51.212;6.788;2024-02-26T06:07:33;6.30;99.90
48604;DHT22;32708;51.212;6.788;2024-02-26T06:09:59;6.30;99.90
48604;DHT22;32708;51.212;6.788;2024-02-26T06:12:25;6.40;99.90
48604;DHT22;32708;51.212;6.788;2024-02-26T06:14:52;6.40;99.90
48604;DHT22;32708;51.212;6.788;2024-02-26T06:17:18;6.30;99.90
48604;DHT22;32708;51.212;6.788;2024-02-26T06:19:44;6.40;99.90
48604;DHT22;32708;51.212;6.788;2024-02-26T06:22:10;6.50;99.90
48604;DHT22;32708;51.212;6.788;2024-02-26T06:24:36;6.30;99.90
48604;DHT22;32708;51.212;6.788;2024-02-26T06:27:03;7.00;99.90
48604;DHT22;32708;51.212;6.788;2024-02-26T06:29:29;6.50;99.90
48604;DHT22;32708;51.212;6.788;2024-02-26T06:31:55;6.30;99.90
48604;DHT22;32708;51.212;6.788;2024-02-26T06:34:21;6.70;99.90
48604;DHT22;32708;51.212;6.788;2024-02-26T06:36:47;6.40;99.90
48604;DHT22;32708;51.212;6.788;2024-02-26T06:39:14;6.40;99.90
48604;DHT22;32708;51.212;6.788;2024-02-26T06:41:42;6.30;99.90
48604;DHT22;32708;51.212;6.788;2024-02-26T06:44:08;6.30;99.90
48604;DHT22;32708;51.212;6.788;2024-02-26T06:46:34;7.00;99.90
48604;DHT22;32708;51.212;6.788;2024-02-26T06:49:00;6.40;99.90
48604;DHT22;32708;51.212;6.788;2024-02-26T06:51:26;6.30;99.90
48604;DHT22;32708;51.212;6.788;2024-02-26T06:53:52;6.30;99.90
48604;DHT22;32708;51.212;6.788;2024-02-26T06:56:19;6.40;99.90
48604;DHT22;32708;51.212;6.788;2024-02-26T06:58:49;6.40;99.90
48604;DHT22;32708;51.212;6.788;2024-02-26T07:01:16;6.40;99.90
48604;DHT22;32708;51.212;6.788;2024-02-26T07:03:42;7.00;99.90
48604;DHT22;32708;51.212;6.788;2024-02-26T07:06:08;6.40;99.90
48604;DHT22;32708;51.212;6.788;2024-02-26T07:08:34;6.40;99.90
48604;DHT22;32708;51.212;6.788;2024-02-26T07:11:01;6.40;99.90
48604;DHT22;32708;51.212;6.788;2024-02-26T07:13:27;6.40;99.90
48604;DHT22;32708;51.212;6.788;2024-02-26T07:15:53;6.60;99.90
48604;DHT22;32708;51.212;6.788;2024-02-26T07:18:19;6.90;99.90
48604;DHT22;32708;51.212;6.788;2024-02-26T07:20:45;6.10;99.90
48604;DHT22;32708;51.212;6.788;2024-02-26T07:23:11;6.20;99.90
48604;DHT22;32708;51.212;6.788;2024-02-26T07:25:38;6.70;99.90
48604;DHT22;32708;51.212;6.788;2024-02-26T07:28:04;6.40;99.90
48604;DHT22;32708;51.212;6.788;2024-02-26T07:30:31;6.20;99.90
48604;DHT22;32708;51.212;6.788;2024-02-26T07:32:57;6.20;99.90
48604;DHT22;32708;51.212;6.788;2024-02-26T07:35:23;6.20;99.90
48604;DHT22;32708;51.212;6.788;2024-02-26T07:37:50;6.10;99.90
48604;DHT22;32708;51.212;6.788;2024-02-26T07:40:16;6.20;99.90
48604;DHT22;32708;51.212;6.788;2024-02-26T07:42:42;6.20;99.90
48604;DHT22;32708;51.212;6.788;2024-02-26T07:45:09;6.20;99.90
48604;DHT22;32708;51.212;6.788;2024-02-26T07:47:36;6.10;99.90
48604;DHT22;32708;51.212;6.788;2024-02-26T07:50:03;6.20;99.90
48604;DHT22;32708;51.212;6.788;2024-02-26T07:52:30;6.20;99.90
48604;DHT22;32708;51.212;6.788;2024-02-26T07:54:56;6.20;99.90
48604;DHT22;32708;51.212;6.788;2024-02-26T07:57:22;6.30;99.90
48604;DHT22;32708;51.212;6.788;2024-02-26T07:59:49;6.20;99.90
48604;DHT22;32708;51.212;6.788;2024-02-26T08:02:16;6.30;99.90
48604;DHT22;32708;51.212;6.788;2024-02-26T08:04:42;6.30;99.90
48604;DHT22;32708;51.212;6.788;2024-02-26T08:07:09;6.30;99.90
48604;DHT22;32708;51.212;6.788;2024-02-26T08:09:35;6.30;99.90
48604;DHT22;32708;51.212;6.788;2024-02-26T08:12:01;6.40;99.90
48604;DHT22;32708;51.212;6.788;2024-02-26T08:14:27;6.50;99.90
48604;DHT22;32708;51.212;6.788;2024-02-26T08:16:53;6.40;99.90
48604;DHT22;32708;51.212;6.788;2024-02-26T08:19:19;6.50;99.90
48604;DHT22;32708;51.212;6.788;2024-02-26T08:21:46;6.40;99.90
48604;DHT22;32708;51.212;6.788;2024-02-26T08:24:12;6.50;99.90
48604;DHT22;32708;51.212;6.788;2024-02-26T08:26:38;6.50;99.90
48604;DHT22;32708;51.212;6.788;2024-02-26T08:29:04;6.60;99.90
48604;DHT22;32708;51.212;6.788;2024-02-26T08:31:30;6.60;99.90
48604;DHT22;32708;51.212;6.788;2024-02-26T08:33:57;6.60;99.90
48604;DHT22;32708;51.212;6.788;2024-02-26T08:36:25;6.70;99.90
48604;DHT22;32708;51.212;6.788;2024-02-26T08:38:51;6.80;99.90
48604;DHT22;32708;51.212;6.788;2024-02-26T08:41:17;6.80;99.90
48604;DHT22;32708;51.212;6.788;2024-02-26T08:43:43;6.90;99.90
48604;DHT22;32708;51.212;6.788;2024-02-26T08:46:10;6.80;99.90
48604;DHT22;32708;51.212;6.788;2024-02-26T08:48:39;6.80;99.90
48604;DHT22;32708;51.212;6.788;2024-02-26T08:51:07;6.90;99.90
48604;DHT22;32708;51.212;6.788;2024-02-26T08:53:35;6.80;99.90
48604;DHT22;32708;51.212;6.788;2024-02-26T08:56:02;6.60;99.90
48604;DHT22;32708;51.212;6.788;2024-02-26T08:58:29;6.80;99.90
48604;DHT22;32708;51.212;6.788;2024-02-26T09:00:55;6.80;99.90
48604;DHT22;32708;51.212;6.788;2024-02-26T09:03:22;6.90;99.90
48604;DHT22;32708;51.212;6.788;2024-02-26T09:05:48;7.50;99.90
48604;DHT22;32708;51.212;6.788;2024-02-26T09:08:15;6.80;99.90
48604;DHT22;32708;51.212;6.788;2024-02-26T09:10:41;6.80;99.90
48604;DHT22;32708;51.212;6.788;2024-02-26T09:13:10;6.80;99.90
48604;DHT22;32708;51.212;6.788;2024-02-26T09:15:37;6.90;99.90
48604;DHT22;32708;51.212;6.788;2024-02-26T09:18:08;6.70;99.90
48604;DHT22;32708;51.212;6.788;2024-02-26T09:20:37;6.70;99.90
48604;DHT22;32708;51.212;6.788;2024-02-26T09:23:04;6.70;99.90
48604;DHT22;32708;51.212;6.788;2024-02-26T09:25:38;6.80;99.90
48604;DHT22;32708;51.212;6.788;2024-02-26T09:28:04;6.80;99.90
48604;DHT22;32708;51.212;6.788;2024-02-26T09:30:31;6.70;99.90
48604;DHT22;32708;51.212;6.788;2024-02-26T09:32:58;7.00;99.90
48604;DHT22;32708;51.212;6.788;2024-02-26T09:35:24;6.70;99.90
48604;DHT22;32708;51.212;6.788;2024-02-26T09:37:50;6.80;99.90
48604;DHT22;32708;51.212;6.788;2024-02-26T09:40:16;6.80;99.90
48604;DHT22;32708;51.212;6.788;2024-02-26T09:42:46;6.90;99.90
48604;DHT22;32708;51.212;6.788;2024-02-26T09:45:18;6.70;99.90
48604;DHT22;32708;51.212;6.788;2024-02-26T09:47:48;6.70;99.90
48604;DHT22;32708;51.212;6.788;2024-02-26T09:50:17;6.80;99.90
48604;DHT22;32708;51.212;6.788;2024-02-26T09:52:49;6.90;99.90
48604;DHT22;32708;51.212;6.788;2024-02-26T09:55:16;7.00;99.90
48604;DHT22;32708;51.212;6.788;2024-02-26T09:57:45;6.90;99.90
48604;DHT22;32708;51.212;6.788;2024-02-26T10:00:18;6.90;99.90
48604;DHT22;32708;51.212;6.788;2024-02-26T10:02:48;6.90;99.90
48604;DHT22;32708;51.212;6.788;2024-02-26T10:05:18;6.80;99.90
48604;DHT22;32708;51.212;6.788;2024-02-26T10:07:48;6.80;99.90
48604;DHT22;32708;51.212;6.788;2024-02-26T10:10:16;6.80;99.90
48604;DHT22;32708;51.212;6.788;2024-02-26T10:12:43;6.80;99.90
48604;DHT22;32708;51.212;6.788;2024-02-26T10:15:09;6.90;99.90
48604;DHT22;32708;51.212;6.788;2024-02-26T10:17:36;7.00;99.90
48604;DHT22;32708;51.212;6.788;2024-02-26T10:20:14;7.20;99.90
48604;DHT22;32708;51.212;6.788;2024-02-26T10:22:42;7.00;99.90
48604;DHT22;32708;51.212;6.788;2024-02-26T10:25:09;7.50;99.90
48604;DHT22;32708;51.212;6.788;2024-02-26T10:27:35;7.10;99.90
48604;DHT22;32708;51.212;6.788;2024-02-26T10:30:17;7.10;99.90
48604;DHT22;32708;51.212;6.788;2024-02-26T10:32:45;7.00;99.90
48604;DHT22;32708;51.212;6.788;2024-02-26T10:35:16;7.90;99.90
48604;DHT22;32708;51.212;6.788;2024-02-26T10:37:50;7.80;99.90
48604;DHT22;32708;51.212;6.788;2024-02-26T10:40:17;7.30;99.90
48604;DHT22;32708;51.212;6.788;2024-02-26T10:42:43;7.10;99.90
48604;DHT22;32708;51.212;6.788;2024-02-26T10:45:11;7.20;99.90
48604;DHT22;32708;51.212;6.788;2024-02-26T10:47:40;7.10;99.90
48604;DHT22;32708;51.212;6.788;2024-02-26T10:50:08;7.10;99.90
48604;DHT22;32708;51.212;6.788;2024-02-26T10:52:36;7.20;99.90
48604;DHT22;32708;51.212;6.788;2024-02-26T10:55:04;7.80;99.90
48604;DHT22;32708;51.212;6.788;2024-02-26T10:57:45;7.20;99.90
48604;DHT22;32708;51.212;6.788;2024-02-26T11:00:15;7.20;99.90
48604;DHT22;32708;51.212;6.788;2024-02-26T11:02:45;7.30;99.90
48604;DHT22;32708;51.212;6.788;2024-02-26T11:05:14;7.20;99.90
48604;DHT22;32708;51.212;6.788;2024-02-26T11:07:42;7.30;99.90
48604;DHT22;32708;51.212;6.788;2024-02-26T11:10:09;7.20;99.90
48604;DHT22;32708;51.212;6.788;2024-02-26T11:12:39;7.20;99.90
48604;DHT22;32708;51.212;6.788;2024-02-26T11:15:08;7.20;99.90
48604;DHT22;32708;51.212;6.788;2024-02-26T11:17:35;7.20;99.90
48604;DHT22;32708;51.212;6.788;2024-02-26T11:20:05;7.10;99.90
48604;DHT22;32708;51.212;6.788;2024-02-26T11:22:36;7.20;99.90
48604;DHT22;32708;51.212;6.788;2024-02-26T11:25:04;7.30;99.90
48604;DHT22;32708;51.212;6.788;2024-02-26T11:27:45;7.20;99.90
48604;DHT22;32708;51.212;6.788;2024-02-26T11:30:18;7.30;99.90
48604;DHT22;32708;51.212;6.788;2024-02-26T11:32:46;7.20;99.90
48604;DHT22;32708;51.212;6.788;2024-02-26T11:35:15;7.20;99.90
48604;DHT22;32708;51.212;6.788;2024-02-26T11:37:54;7.50;99.90
48604;DHT22;32708;51.212;6.788;2024-02-26T11:40:24;7.20;99.90
48604;DHT22;32708;51.212;6.788;2024-02-26T11:42:53;7.10;99.90
48604;DHT22;32708;51.212;6.788;2024-02-26T11:48:13;7.00;99.90
48604;DHT22;32708;51.212;6.788;2024-02-26T11:50:51;7.30;99.90
48604;DHT22;32708;51.212;6.788;2024-02-26T11:53:31;7.20;99.90
48604;DHT22;32708;51.212;6.788;2024-02-26T11:58:46;7.20;99.90
48604;DHT22;32708;51.212;6.788;2024-02-26T12:01:41;7.10;99.90
48604;DHT22;32708;51.212;6.788;2024-02-26T12:04:21;7.10;99.90
48604;DHT22;32708;51.212;6.788;2024-02-26T12:06:52;7.20;99.90
48604;DHT22;32708;51.212;6.788;2024-02-26T12:09:36;7.20;99.90
48604;DHT22;32708;51.212;6.788;2024-02-26T12:14:38;7.20;99.90
48604;DHT22;32708;51.212;6.788;2024-02-26T12:17:22;7.40;99.90
48604;DHT22;32708;51.212;6.788;2024-02-26T12:19:50;7.20;99.90
48604;DHT22;32708;51.212;6.788;2024-02-26T12:22:19;7.10;99.90
48604;DHT22;32708;51.212;6.788;2024-02-26T12:24:46;7.30;99.90
48604;DHT22;32708;51.212;6.788;2024-02-26T12:27:13;7.30;99.90
48604;DHT22;32708;51.212;6.788;2024-02-26T12:29:41;7.40;99.90
48604;DHT22;32708;51.212;6.788;2024-02-26T12:32:07;7.30;99.90
48604;DHT22;32708;51.212;6.788;2024-02-26T12:34:34;7.30;99.90
48604;DHT22;32708;51.212;6.788;2024-02-26T12:37:01;7.30;99.90
48604;DHT22;32708;51.212;6.788;2024-02-26T12:39:28;7.30;99.90
48604;DHT22;32708;51.212;6.788;2024-02-26T12:41:57;7.90;99.90
48604;DHT22;32708;51.212;6.788;2024-02-26T12:44:25;7.20;99.90
48604;DHT22;32708;51.212;6.788;2024-02-26T12:47:04;7.40;99.90
48604;DHT22;32708;51.212;6.788;2024-02-26T12:49:36;7.50;99.90
48604;DHT22;32708;51.212;6.788;2024-02-26T12:52:13;7.90;99.90
48604;DHT22;32708;51.212;6.788;2024-02-26T12:54:42;7.60;99.90
48604;DHT22;32708;51.212;6.788;2024-02-26T12:57:23;7.60;99.90
48604;DHT22;32708;51.212;6.788;2024-02-26T12:59:55;7.80;99.90
48604;DHT22;32708;51.212;6.788;2024-02-26T13:02:22;7.50;99.90
48604;DHT22;32708;51.212;6.788;2024-02-26T13:04:59;7.40;99.90
48604;DHT22;32708;51.212;6.788;2024-02-26T13:07:45;7.60;99.90
48604;DHT22;32708;51.212;6.788;2024-02-26T13:10:22;7.80;99.90
48604;DHT22;32708;51.212;6.788;2024-02-26T13:12:51;7.50;99.90
48604;DHT22;32708;51.212;6.788;2024-02-26T13:15:20;7.70;99.90
48604;DHT22;32708;51.212;6.788;2024-02-26T13:17:48;7.50;99.90
48604;DHT22;32708;51.212;6.788;2024-02-26T13:20:30;7.50;99.90
48604;DHT22;32708;51.212;6.788;2024-02-26T13:23:08;7.90;99.90
48604;DHT22;32708;51.212;6.788;2024-02-26T13:25:38;7.80;99.90
48604;DHT22;32708;51.212;6.788;2024-02-26T13:28:13;7.80;99.90
48604;DHT22;32708;51.212;6.788;2024-02-26T13:30:39;7.80;99.90
48604;DHT22;32708;51.212;6.788;2024-02-26T13:33:12;7.80;99.90
48604;DHT22;32708;51.212;6.788;2024-02-26T13:35:40;8.00;99.90
48604;DHT22;32708;51.212;6.788;2024-02-26T13:38:06;7.90;99.90
48604;DHT22;32708;51.212;6.788;2024-02-26T13:40:33;7.70;99.90
48604;DHT22;32708;51.212;6.788;2024-02-26T13:43:00;7.80;99.90
48604;DHT22;32708;51.212;6.788;2024-02-26T13:45:29;8.00;99.90
48604;DHT22;32708;51.212;6.788;2024-02-26T13:48:06;7.80;99.90
48604;DHT22;32708;51.212;6.788;2024-02-26T13:50:39;7.90;99.90
48604;DHT22;32708;51.212;6.788;2024-02-26T13:53:07;7.80;99.90
48604;DHT22;32708;51.212;6.788;2024-02-26T13:55:34;8.10;99.90
48604;DHT22;32708;51.212;6.788;2024-02-26T13:58:15;8.00;99.90
48604;DHT22;32708;51.212;6.788;2024-02-26T14:00:54;8.60;99.90
48604;DHT22;32708;51.212;6.788;2024-02-26T14:03:21;8.20;99.90
48604;DHT22;32708;51.212;6.788;2024-02-26T14:05:47;8.20;99.90
48604;DHT22;32708;51.212;6.788;2024-02-26T14:08:21;8.10;99.90
48604;DHT22;32708;51.212;6.788;2024-02-26T14:10:50;7.40;99.90
48604;DHT22;32708;51.212;6.788;2024-02-26T14:13:17;8.10;99.90
48604;DHT22;32708;51.212;6.788;2024-02-26T14:15:43;8.30;99.90
48604;DHT22;32708;51.212;6.788;2024-02-26T14:18:09;8.30;99.90
48604;DHT22;32708;51.212;6.788;2024-02-26T14:20:36;8.40;99.90
48604;DHT22;32708;51.212;6.788;2024-02-26T14:23:05;8.10;99.90
48604;DHT22;32708;51.212;6.788;2024-02-26T14:25:31;8.20;99.90
48604;DHT22;32708;51.212;6.788;2024-02-26T14:27:57;8.50;99.90
48604;DHT22;32708;51.212;6.788;2024-02-26T14:30:25;8.40;99.90
48604;DHT22;32708;51.212;6.788;2024-02-26T14:32:52;8.50;99.90
48604;DHT22;32708;51.212;6.788;2024-02-26T14:35:18;8.40;99.90
48604;DHT22;32708;51.212;6.788;2024-02-26T14:37:47;8.60;99.90
48604;DHT22;32708;51.212;6.788;2024-02-26T14:40:15;8.30;99.90
48604;DHT22;32708;51.212;6.788;2024-02-26T14:42:47;8.40;99.90
48604;DHT22;32708;51.212;6.788;2024-02-26T14:45:15;8.40;99.90
48604;DHT22;32708;51.212;6.788;2024-02-26T14:47:48;8.30;99.90
48604;DHT22;32708;51.212;6.788;2024-02-26T14:50:15;8.50;99.90
48604;DHT22;32708;51.212;6.788;2024-02-26T14:52:44;8.50;99.90
48604;DHT22;32708;51.212;6.788;2024-02-26T14:55:10;8.40;99.90
48604;DHT22;32708;51.212;6.788;2024-02-26T14:57:36;8.30;99.90
48604;DHT22;32708;51.212;6.788;2024-02-26T15:00:02;8.50;99.90
48604;DHT22;32708;51.212;6.788;2024-02-26T15:02:31;8.50;99.90
48604;DHT22;32708;51.212;6.788;2024-02-26T15:04:58;8.50;99.90
48604;DHT22;32708;51.212;6.788;2024-02-26T15:07:26;8.40;99.90
48604;DHT22;32708;51.212;6.788;2024-02-26T15:09:53;8.80;99.90
48604;DHT22;32708;51.212;6.788;2024-02-26T15:12:23;8.70;99.90
48604;DHT22;32708;51.212;6.788;2024-02-26T15:14:49;8.50;99.90
48604;DHT22;32708;51.212;6.788;2024-02-26T15:17:15;8.50;99.90
48604;DHT22;32708;51.212;6.788;2024-02-26T15:19:42;8.40;99.90
48604;DHT22;32708;51.212;6.788;2024-02-26T15:22:08;8.40;99.90
48604;DHT22;32708;51.212;6.788;2024-02-26T15:24:34;8.30;99.90
48604;DHT22;32708;51.212;6.788;2024-02-26T15:27:00;8.50;99.90
48604;DHT22;32708;51.212;6.788;2024-02-26T15:29:26;8.50;99.90
48604;DHT22;32708;51.212;6.788;2024-02-26T15:31:53;8.60;99.90
48604;DHT22;32708;51.212;6.788;2024-02-26T15:34:19;8.60;99.90
48604;DHT22;32708;51.212;6.788;2024-02-26T15:36:48;8.50;99.90
48604;DHT22;32708;51.212;6.788;2024-02-26T15:39:14;8.60;99.90
48604;DHT22;32708;51.212;6.788;2024-02-26T15:41:40;8.40;99.90
48604;DHT22;32708;51.212;6.788;2024-02-26T15:44:06;8.50;99.90
48604;DHT22;32708;51.212;6.788;2024-02-26T15:46:32;8.40;99.90
48604;DHT22;32708;51.212;6.788;2024-02-26T15:48:59;8.50;99.90
48604;DHT22;32708;51.212;6.788;2024-02-26T15:51:25;8.40;99.90
48604;DHT22;32708;51.212;6.788;2024-02-26T15:53:51;8.40;99.90
48604;DHT22;32708;51.212;6.788;2024-02-26T15:56:18;8.40;99.90
48604;DHT22;32708;51.212;6.788;2024-02-26T15:58:52;8.40;99.90